Time;durP1;ratioP1;P1;durP2;ratioP2;P2;SDS_P1;SDS_P2;PMS_P1;PMS_P2;Temp;Humidity;BMP_temperature;BMP_pressure;BME280_temperature;BME280_humidity;BME280_pressure;Samples;Min_cycle;Max_cycle;Signal;HPM_P1;HPM_P2
2022/09/08 00:23:43;;;;;;;5.9;1.7;;;;;;;;;;;;;-75
2022/09/08 00:53:47;;;;;;;3.8;1.1;;;;;;;;;;;;;-76
2022/09/08 01:23:53;;;;;;;2.5;1;;;;;;;;;;;;;-76
2022/09/08 01:53:50;;;;;;;2.8;1.1;;;;;;;;;;;;;-76
2022/09/08 02:23:52;;;;;;;7.4;3.7;;;;;;;;;;;;;-77
2022/09/08 02:53:56;;;;;;;7.5;3.3;;;;;;;;;;;;;-76
2022/09/08 03:23:57;;;;;;;5.8;2.5;;;;;;;;;;;;;-77
2022/09/08 03:54:46;;;;;;;6.8;2.1;;;;;;;;;;;;;-77
2022/09/08 04:24:01;;;;;;;7.3;2;;;;;;;;;;;;;-77
2022/09/08 04:54:03;;;;;;;6.9;2.6;;;;;;;;;;;;;-77
2022/09/08 05:24:05;;;;;;;7;2.8;;;;;;;;;;;;;-79
2022/09/08 05:54:07;;;;;;;6;2.6;;;;;;;;;;;;;-77
2022/09/08 06:24:09;;;;;;;6.8;3;;;;;;;;;;;;;-78
2022/09/08 06:54:23;;;;;;;7.7;3;;;;;;;;;;;;;-78
2022/09/08 07:24:19;;;;;;;6.9;3.1;;;;;;;;;;;;;-80
2022/09/08 07:54:23;;;;;;;5.5;1.9;;;;;;;;;;;;;-77
2022/09/08 08:24:24;;;;;;;3.8;1.1;;;;;;;;;;;;;-78
2022/09/08 08:54:25;;;;;;;5;2.2;;;;;;;;;;;;;-77
2022/09/08 09:24:24;;;;;;;7;3.8;;;;;;;;;;;;;-79
2022/09/08 09:54:29;;;;;;;10.9;5.6;;;;;;;;;;;;;-77
2022/09/08 10:24:42;;;;;;;8.9;6.5;;;;;;;;;;;;;-78
2022/09/08 10:54:42;;;;;;;11.2;7;;;;;;;;;;;;;-77
2022/09/08 11:24:38;;;;;;;8.9;4.7;;;;;;;;;;;;;-75
2022/09/08 11:54:44;;;;;;;5.9;3.3;;;;;;;;;;;;;-77
2022/09/08 12:24:44;;;;;;;5.5;2.8;;;;;;;;;;;;;-76
2022/09/08 12:54:50;;;;;;;5.7;2.2;;;;;;;;;;;;;-77
2022/09/08 13:24:51;;;;;;;4.9;2.3;;;;;;;;;;;;;-78
2022/09/08 13:55:01;;;;;;;5.6;2.2;;;;;;;;;;;;;-78
2022/09/08 14:24:55;;;;;;;5.6;1.5;;;;;;;;;;;;;-76
2022/09/08 14:55:04;;;;;;;4.3;1.2;;;;;;;;;;;;;-74
2022/09/08 15:24:59;;;;;;;4.2;1.4;;;;;;;;;;;;;-75
2022/09/08 15:55:04;;;;;;;4.7;1.4;;;;;;;;;;;;;-76
2022/09/08 16:25:08;;;;;;;3.4;1.3;;;;;;;;;;;;;-76
2022/09/08 16:55:21;;;;;;;5;1.4;;;;;;;;;;;;;-77
2022/09/08 17:25:25;;;;;;;4;1.2;;;;;;;;;;;;;-78
2022/09/08 17:55:20;;;;;;;4;1.5;;;;;;;;;;;;;-78
2022/09/08 18:25:30;;;;;;;3.2;1.4;;;;;;;;;;;;;-77
2022/09/08 18:55:35;;;;;;;3;1.3;;;;;;;;;;;;;-81
2022/09/08 19:25:26;;;;;;;3.8;1.5;;;;;;;;;;;;;-79
2022/09/08 19:55:42;;;;;;;4.6;1.6;;;;;;;;;;;;;-79
2022/09/08 20:25:34;;;;;;;3.3;1.5;;;;;;;;;;;;;-79
2022/09/08 20:55:32;;;;;;;3.2;1.4;;;;;;;;;;;;;-77
2022/09/08 21:25:35;;;;;;;4.2;1.4;;;;;;;;;;;;;-76
2022/09/08 21:55:37;;;;;;;3.2;1.4;;;;;;;;;;;;;-78
2022/09/08 22:25:43;;;;;;;3.4;1.4;;;;;;;;;;;;;-78
2022/09/08 22:55:42;;;;;;;3.7;1.2;;;;;;;;;;;;;-78
2022/09/08 23:25:51;;;;;;;3.6;1.7;;;;;;;;;;;;;-78
2022/09/08 23:55:43;;;;;;;3.2;1.7;;;;;;;;;;;;;-78
